createdAt,value
2019-03-08T00:00:15.803Z,7.15
2019-03-08T00:01:15.887Z,7.09
2019-03-08T00:02:15.812Z,7.09
2019-03-08T00:03:15.796Z,7.11
2019-03-08T00:04:15.762Z,7.14
2019-03-08T00:05:15.809Z,7.08
2019-03-08T00:06:15.738Z,7.14
2019-03-08T00:07:15.831Z,7.11
2019-03-08T00:08:15.749Z,7.15
2019-03-08T00:09:15.858Z,7.11
2019-03-08T00:10:15.698Z,7.14
2019-03-08T00:11:15.748Z,7.09
2019-03-08T00:12:15.681Z,7.12
2019-03-08T00:13:15.791Z,7.09
2019-03-08T00:14:15.658Z,7.11
2019-03-08T00:15:15.672Z,7.16
2019-03-08T00:16:15.649Z,7.14
2019-03-08T00:17:15.701Z,7.15
2019-03-08T00:18:15.637Z,7.12
2019-03-08T00:19:15.700Z,7.12
2019-03-08T00:20:15.590Z,7.14
2019-03-08T00:21:15.615Z,7.08
2019-03-08T00:22:15.656Z,7.19
2019-03-08T00:23:15.656Z,7.05
2019-03-08T00:24:15.545Z,7.16
2019-03-08T00:25:15.647Z,7.14
2019-03-08T00:26:15.531Z,7.16
2019-03-08T00:27:15.558Z,7.14
2019-03-08T00:28:15.546Z,7.14
2019-03-08T00:29:15.563Z,7.21
2019-03-08T00:30:15.476Z,7.14
2019-03-08T00:31:15.584Z,7.21
2019-03-08T00:32:15.460Z,7.15
2019-03-08T00:33:15.523Z,7.18
2019-03-08T00:34:15.437Z,7.21
2019-03-08T00:35:15.504Z,7.21
2019-03-08T00:36:15.409Z,7.16
2019-03-08T00:37:15.521Z,7.14
2019-03-08T00:38:15.498Z,7.15
2019-03-08T00:39:15.434Z,7.14
2019-03-08T00:40:15.364Z,7.15
2019-03-08T00:41:15.443Z,7.21
2019-03-08T00:42:15.343Z,7.26
2019-03-08T00:43:15.456Z,7.21
2019-03-08T00:44:15.359Z,7.26
2019-03-08T00:45:15.376Z,7.26
2019-03-08T00:46:15.315Z,7.29
2019-03-08T00:47:15.382Z,7.30
2019-03-08T00:48:15.350Z,7.32
2019-03-08T00:49:15.329Z,7.32
2019-03-08T00:50:15.264Z,7.37
2019-03-08T00:51:15.308Z,7.36
2019-03-08T00:52:15.240Z,7.30
2019-03-08T00:53:15.793Z,7.37
2019-03-08T00:54:15.251Z,7.45
2019-03-08T00:55:15.343Z,7.39
2019-03-08T00:56:15.206Z,7.39
2019-03-08T00:57:15.247Z,7.48
2019-03-08T00:58:15.175Z,7.42
2019-03-08T00:59:15.299Z,7.48
2019-03-08T01:00:15.160Z,7.37
2019-03-08T01:01:15.174Z,7.44
2019-03-08T01:02:15.141Z,7.36
2019-03-08T01:03:15.192Z,7.37
2019-03-08T01:04:15.165Z,7.32
2019-03-08T01:05:15.206Z,7.32
2019-03-08T01:06:15.090Z,7.29
2019-03-08T01:07:15.111Z,7.26
2019-03-08T01:08:15.066Z,7.21
2019-03-08T01:09:15.134Z,7.21
2019-03-08T01:10:15.084Z,7.15
2019-03-08T01:11:15.156Z,7.18
2019-03-08T01:12:15.033Z,7.11
2019-03-08T01:13:15.051Z,7.11
2019-03-08T01:14:15.043Z,7.11
2019-03-08T01:15:15.107Z,7.16
2019-03-08T01:16:14.975Z,7.15
2019-03-08T01:17:15.090Z,7.09
2019-03-08T01:18:14.972Z,7.14
2019-03-08T01:19:15.016Z,7.04
2019-03-08T01:20:14.993Z,7.09
2019-03-08T01:21:15.016Z,7.09
2019-03-08T01:22:14.924Z,7.09
2019-03-08T01:23:15.027Z,6.93
2019-03-08T01:24:14.898Z,7.01
2019-03-08T01:25:14.976Z,6.94
2019-03-08T01:26:14.885Z,6.94
2019-03-08T01:27:14.973Z,6.93
2019-03-08T01:28:14.895Z,6.94
2019-03-08T01:29:14.964Z,6.89
2019-03-08T01:30:14.852Z,6.93
2019-03-08T01:31:14.885Z,6.90
2019-03-08T01:32:14.832Z,6.87
2019-03-08T01:33:14.901Z,6.89
2019-03-08T01:34:14.794Z,6.91
2019-03-08T01:35:14.932Z,6.94
2019-03-08T01:36:14.807Z,6.93
2019-03-08T01:37:14.815Z,6.93
2019-03-08T01:38:14.736Z,6.87
2019-03-08T01:39:14.825Z,6.93
2019-03-08T01:40:14.719Z,6.90
2019-03-08T01:41:14.769Z,6.87
2019-03-08T01:42:14.712Z,6.86
2019-03-08T01:43:14.751Z,6.83
2019-03-08T01:44:14.699Z,6.83
2019-03-08T01:45:14.767Z,6.90
2019-03-08T01:46:14.690Z,6.87
2019-03-08T01:47:14.679Z,6.91
2019-03-08T01:48:14.651Z,6.91
2019-03-08T01:49:14.695Z,6.89
2019-03-08T01:50:21.339Z,6.94
2019-03-08T01:51:14.738Z,6.93
2019-03-08T01:52:14.590Z,6.94
2019-03-08T01:53:14.627Z,6.96
2019-03-08T01:54:14.565Z,6.99
2019-03-08T01:55:14.628Z,6.94
2019-03-08T01:56:14.593Z,6.96
2019-03-08T01:57:14.706Z,6.97
2019-03-08T01:58:14.533Z,7.01
2019-03-08T01:59:14.580Z,6.94
2019-03-08T02:00:14.539Z,6.96
2019-03-08T02:01:14.578Z,6.94
2019-03-08T02:02:14.508Z,6.97
2019-03-08T02:03:14.607Z,6.97
2019-03-08T02:04:14.473Z,6.93
2019-03-08T02:05:14.498Z,6.91
2019-03-08T02:06:14.505Z,6.90
2019-03-08T02:07:14.511Z,6.89
2019-03-08T02:08:14.451Z,6.90
2019-03-08T02:09:14.523Z,6.91
2019-03-08T02:10:14.396Z,6.91
2019-03-08T02:11:14.466Z,6.97
2019-03-08T02:12:14.404Z,6.78
2019-03-08T02:13:14.452Z,6.89
2019-03-08T02:14:14.355Z,6.87
2019-03-08T02:15:14.493Z,6.78
2019-03-08T02:16:14.345Z,6.82
2019-03-08T02:17:14.419Z,6.89
2019-03-08T02:18:14.309Z,6.87
2019-03-08T02:19:14.389Z,6.86
2019-03-08T02:20:14.298Z,6.90
2019-03-08T02:21:16.358Z,6.91
2019-03-08T02:22:14.318Z,6.91
2019-03-08T02:23:14.317Z,6.93
2019-03-08T02:24:14.235Z,6.96
2019-03-08T02:25:14.358Z,6.94
2019-03-08T02:26:14.244Z,6.91
2019-03-08T02:27:14.275Z,6.97
2019-03-08T02:28:14.191Z,6.90
2019-03-08T02:29:14.255Z,6.87
2019-03-08T02:30:14.184Z,6.93
2019-03-08T02:31:14.273Z,6.93
2019-03-08T02:32:14.181Z,6.86
2019-03-08T02:33:14.275Z,6.91
2019-03-08T02:34:14.128Z,6.78
2019-03-08T02:35:14.195Z,6.81
2019-03-08T02:36:14.120Z,6.87
2019-03-08T02:37:14.213Z,6.82
2019-03-08T02:38:14.117Z,6.87
2019-03-08T02:39:14.122Z,6.78
2019-03-08T02:40:14.072Z,6.81
2019-03-08T02:41:14.137Z,6.78
2019-03-08T02:42:14.037Z,6.81
2019-03-08T02:43:14.211Z,6.78
2019-03-08T02:44:14.029Z,6.75
2019-03-08T02:45:14.056Z,6.78
2019-03-08T02:46:13.994Z,6.76
2019-03-08T02:47:14.073Z,6.71
2019-03-08T02:48:14.028Z,6.72
2019-03-08T02:49:14.090Z,6.65
2019-03-08T02:50:13.979Z,6.76
2019-03-08T02:51:14.001Z,6.65
2019-03-08T02:52:13.950Z,6.73
2019-03-08T02:53:14.033Z,6.69
2019-03-08T02:54:13.942Z,6.61
2019-03-08T02:55:13.923Z,6.71
2019-03-08T02:56:13.894Z,6.69
2019-03-08T02:57:13.938Z,6.65
2019-03-08T02:58:13.860Z,6.63
2019-03-08T02:59:13.991Z,6.75
2019-03-08T03:00:13.855Z,6.76
2019-03-08T03:01:13.889Z,6.76
2019-03-08T03:02:13.828Z,6.78
2019-03-08T03:03:13.901Z,6.69
2019-03-08T03:04:13.845Z,6.75
2019-03-08T03:05:13.895Z,6.76
2019-03-08T03:06:13.793Z,6.73
2019-03-08T03:07:13.800Z,6.82
2019-03-08T03:08:13.751Z,6.75
2019-03-08T03:09:13.851Z,6.86
2019-03-08T03:10:13.733Z,6.75
2019-03-08T03:11:13.845Z,6.78
2019-03-08T03:12:13.718Z,6.78
2019-03-08T03:13:13.785Z,6.82
2019-03-08T03:14:13.744Z,6.82
2019-03-08T03:15:13.776Z,6.83
2019-03-08T03:16:13.674Z,6.75
2019-03-08T03:17:13.781Z,6.75
2019-03-08T03:18:13.658Z,6.75
2019-03-08T03:19:13.704Z,6.76
2019-03-08T03:20:13.621Z,6.76
2019-03-08T03:21:13.696Z,6.79
2019-03-08T03:22:13.615Z,6.79
2019-03-08T03:23:13.710Z,6.72
2019-03-08T03:24:13.617Z,6.71
2019-03-08T03:25:13.625Z,6.82
2019-03-08T03:26:13.563Z,6.82
2019-03-08T03:27:13.650Z,6.78
2019-03-08T03:28:13.529Z,6.76
2019-03-08T03:29:13.684Z,6.73
2019-03-08T03:30:13.523Z,6.75
2019-03-08T03:31:13.574Z,6.71
2019-03-08T03:32:13.501Z,6.65
2019-03-08T03:33:13.574Z,6.81
2019-03-08T03:34:13.473Z,6.78
2019-03-08T03:35:13.627Z,6.81
2019-03-08T03:36:13.452Z,6.78
2019-03-08T03:37:13.512Z,6.79
2019-03-08T03:38:13.427Z,6.83
2019-03-08T03:39:13.645Z,6.76
2019-03-08T03:40:13.442Z,6.79
2019-03-08T03:41:13.419Z,6.78
2019-03-08T03:42:13.387Z,6.75
2019-03-08T03:43:13.439Z,6.83
2019-03-08T03:44:13.370Z,6.78
2019-03-08T03:45:13.483Z,6.82
2019-03-08T03:46:13.335Z,6.83
2019-03-08T03:48:14.449Z,6.90
2019-03-08T03:50:14.447Z,6.90
2019-03-08T03:51:13.400Z,6.89
2019-03-08T03:52:13.272Z,6.89
2019-03-08T03:53:13.297Z,6.93
2019-03-08T03:54:13.242Z,6.91
2019-03-08T03:55:14.368Z,6.90
2019-03-08T03:56:13.218Z,6.89
2019-03-08T03:57:13.338Z,6.89
2019-03-08T03:58:13.203Z,6.90
2019-03-08T04:00:13.212Z,6.90
2019-03-08T04:01:13.302Z,6.96
2019-03-08T04:03:14.322Z,6.91
2019-03-08T04:04:13.276Z,6.90
2019-03-08T04:05:13.268Z,6.91
2019-03-08T04:06:13.269Z,6.86
2019-03-08T04:07:13.340Z,6.94
2019-03-08T04:08:13.220Z,6.89
2019-03-08T04:09:13.204Z,6.96
2019-03-08T04:10:13.076Z,6.90
2019-03-08T04:11:13.153Z,6.94
2019-03-08T04:12:13.046Z,6.93
2019-03-08T04:13:13.144Z,6.90
2019-03-08T04:14:13.024Z,6.96
2019-03-08T04:15:13.047Z,6.91
2019-03-08T04:16:13.034Z,6.94
2019-03-08T04:17:13.070Z,6.94
2019-03-08T04:18:12.981Z,7.00
2019-03-08T04:19:13.074Z,6.91
2019-03-08T04:20:12.963Z,6.96
2019-03-08T04:21:13.016Z,6.90
2019-03-08T04:22:12.931Z,6.97
2019-03-08T04:23:12.997Z,6.96
2019-03-08T04:24:12.920Z,6.94
2019-03-08T04:25:13.014Z,7.01
2019-03-08T04:26:12.930Z,6.97
2019-03-08T04:27:12.946Z,6.94
2019-03-08T04:28:12.895Z,7.00
2019-03-08T04:29:12.955Z,6.99
2019-03-08T04:30:12.848Z,6.93
2019-03-08T04:31:12.990Z,6.93
2019-03-08T04:32:12.848Z,6.99
2019-03-08T04:33:12.877Z,6.91
2019-03-08T04:34:12.815Z,6.99
2019-03-08T04:35:12.883Z,6.93
2019-03-08T04:36:12.798Z,6.93
2019-03-08T04:37:12.927Z,7.00
2019-03-08T04:38:12.782Z,7.01
2019-03-08T04:39:12.803Z,6.94
2019-03-08T04:40:12.741Z,6.99
2019-03-08T04:42:13.983Z,7.09
2019-03-08T04:43:12.731Z,7.04
2019-03-08T04:44:12.694Z,6.94
2019-03-08T04:45:12.746Z,6.97
2019-03-08T04:46:12.782Z,6.99
2019-03-08T04:47:12.893Z,6.93
2019-03-08T04:48:12.807Z,6.99
2019-03-08T04:50:14.339Z,6.99
2019-03-08T04:51:12.970Z,6.99
2019-03-08T04:52:12.795Z,6.96
2019-03-08T04:53:13.118Z,6.90
2019-03-08T04:54:12.767Z,6.97
2019-03-08T04:55:12.610Z,6.96
2019-03-08T04:56:12.557Z,6.99
2019-03-08T04:57:12.666Z,6.97
2019-03-08T04:58:12.585Z,6.94
2019-03-08T04:59:12.643Z,6.99
2019-03-08T05:00:12.528Z,6.99
2019-03-08T05:01:12.553Z,6.93
2019-03-08T05:02:12.493Z,6.96
2019-03-08T05:03:12.595Z,6.97
2019-03-08T05:04:12.503Z,6.97
2019-03-08T05:05:12.574Z,6.97
2019-03-08T05:06:12.468Z,6.99
2019-03-08T05:08:13.595Z,7.07
2019-03-08T05:09:12.497Z,7.05
2019-03-08T05:10:12.414Z,7.07
2019-03-08T05:11:12.558Z,6.94
2019-03-08T05:12:12.415Z,6.97
2019-03-08T05:13:12.454Z,7.01
2019-03-08T05:14:12.365Z,7.00
2019-03-08T05:15:12.444Z,6.96
2019-03-08T05:16:12.340Z,6.94
2019-03-08T05:17:12.457Z,6.94
2019-03-08T05:18:12.362Z,6.97
2019-03-08T05:19:12.362Z,6.93
2019-03-08T05:20:12.301Z,7.04
2019-03-08T05:21:12.395Z,6.96
2019-03-08T05:22:12.279Z,7.01
2019-03-08T05:23:12.290Z,6.99
2019-03-08T05:24:12.297Z,6.94
2019-03-08T05:25:12.316Z,6.99
2019-03-08T05:26:12.260Z,6.97
2019-03-08T05:27:12.321Z,7.01
2019-03-08T05:28:12.217Z,6.99
2019-03-08T05:29:12.255Z,6.94
2019-03-08T05:30:12.225Z,7.00
2019-03-08T05:31:12.253Z,6.96
2019-03-08T05:32:12.167Z,6.90
2019-03-08T05:33:12.256Z,6.91
2019-03-08T05:34:12.171Z,6.90
2019-03-08T05:35:12.169Z,6.94
2019-03-08T05:36:12.123Z,6.89
2019-03-08T05:37:12.182Z,6.94
2019-03-08T05:38:12.100Z,6.91
2019-03-08T05:39:12.226Z,6.93
2019-03-08T05:40:12.079Z,6.91
2019-03-08T05:41:12.118Z,6.81
2019-03-08T05:42:12.055Z,6.82
2019-03-08T05:43:12.128Z,6.82
2019-03-08T05:44:12.076Z,6.86
2019-03-08T05:45:12.167Z,6.79
2019-03-08T05:46:12.017Z,6.79
2019-03-08T05:47:12.054Z,6.79
2019-03-08T05:48:11.990Z,6.76
2019-03-08T05:49:12.080Z,6.83
2019-03-08T05:50:12.013Z,6.78
2019-03-08T05:51:12.074Z,6.79
2019-03-08T05:52:11.953Z,6.82
2019-03-08T05:53:12.003Z,6.72
2019-03-08T05:54:11.924Z,6.81
2019-03-08T05:55:12.009Z,6.72
2019-03-08T05:56:11.924Z,6.72
2019-03-08T05:57:12.014Z,6.63
2019-03-08T05:58:11.882Z,6.65
2019-03-08T05:59:11.931Z,6.63
2019-03-08T06:00:11.884Z,6.61
2019-03-08T06:01:11.951Z,6.64
2019-03-08T06:02:11.842Z,6.61
2019-03-08T06:03:11.853Z,6.58
2019-03-08T06:04:12.044Z,6.58
2019-03-08T06:05:11.898Z,6.63
2019-03-08T06:06:11.808Z,6.54
2019-03-08T06:07:11.882Z,6.63
2019-03-08T06:08:11.788Z,6.63
2019-03-08T06:09:11.801Z,6.64
2019-03-08T06:10:11.745Z,6.64
2019-03-08T06:11:11.891Z,6.61
2019-03-08T06:12:11.730Z,6.58
2019-03-08T06:13:11.825Z,6.57
2019-03-08T06:14:11.710Z,6.57
2019-03-08T06:15:11.734Z,6.54
2019-03-08T06:16:11.705Z,6.55
2019-03-08T06:17:11.745Z,6.54
2019-03-08T06:18:11.654Z,6.63
2019-03-08T06:19:11.781Z,6.63
2019-03-08T06:20:11.657Z,6.58
2019-03-08T06:21:11.718Z,6.60
2019-03-08T06:22:11.607Z,6.64
2019-03-08T06:23:11.685Z,6.64
2019-03-08T06:24:11.587Z,6.65
2019-03-08T06:25:11.709Z,6.58
2019-03-08T06:26:11.606Z,6.72
2019-03-08T06:27:11.616Z,6.64
2019-03-08T06:28:11.550Z,6.69
2019-03-08T06:29:11.628Z,6.71
2019-03-08T06:30:11.527Z,6.72
2019-03-08T06:31:11.668Z,6.72
2019-03-08T06:32:11.513Z,6.73
2019-03-08T06:33:11.559Z,6.72
2019-03-08T06:34:11.477Z,6.72
2019-03-08T06:35:11.570Z,6.73
2019-03-08T06:36:11.493Z,6.76
2019-03-08T06:37:11.489Z,6.73
2019-03-08T06:38:11.458Z,6.75
2019-03-08T06:39:11.503Z,6.72
2019-03-08T06:40:11.414Z,6.78
2019-03-08T06:41:11.508Z,6.75
2019-03-08T06:42:11.594Z,6.71
2019-03-08T06:43:11.415Z,6.75
2019-03-08T06:44:11.373Z,6.72
2019-03-08T06:45:11.431Z,6.72
2019-03-08T06:46:11.347Z,6.68
2019-03-08T06:47:11.471Z,6.78
2019-03-08T06:48:11.335Z,6.72
2019-03-08T06:49:11.364Z,6.75
2019-03-08T06:50:11.305Z,6.71
2019-03-08T06:51:11.374Z,6.73
2019-03-08T06:52:11.308Z,6.76
2019-03-08T06:53:11.386Z,6.89
2019-03-08T06:54:11.279Z,6.81
2019-03-08T06:55:11.295Z,6.79
2019-03-08T06:56:11.230Z,6.82
2019-03-08T06:57:11.336Z,6.83
2019-03-08T06:58:11.242Z,6.78
2019-03-08T06:59:11.324Z,6.86
2019-03-08T07:00:11.196Z,6.81
2019-03-08T07:01:11.235Z,6.81
2019-03-08T07:02:11.172Z,6.81
2019-03-08T07:03:11.274Z,6.79
2019-03-08T07:04:11.163Z,6.86
2019-03-08T07:05:11.267Z,6.87
2019-03-08T07:06:11.128Z,6.90
2019-03-08T07:07:11.171Z,6.87
2019-03-08T07:08:11.139Z,6.78
2019-03-08T07:09:11.232Z,6.81
2019-03-08T07:10:11.102Z,6.78
2019-03-08T07:11:11.099Z,6.79
2019-03-08T07:12:11.072Z,6.72
2019-03-08T07:13:11.134Z,6.78
2019-03-08T07:14:11.042Z,6.72
2019-03-08T07:15:11.131Z,6.78
2019-03-08T07:16:13.875Z,6.75
2019-03-08T07:17:11.038Z,6.76
2019-03-08T07:18:12.911Z,6.72
2019-03-08T07:19:11.053Z,6.72
2019-03-08T07:20:10.974Z,6.72
2019-03-08T07:21:11.085Z,6.76
2019-03-08T07:22:10.954Z,6.73
2019-03-08T07:23:11.180Z,6.72
2019-03-08T07:24:10.927Z,6.73
2019-03-08T07:25:10.990Z,6.69
2019-03-08T07:26:10.915Z,6.75
2019-03-08T07:27:10.905Z,6.71
2019-03-08T07:28:10.910Z,6.78
2019-03-08T07:29:10.947Z,6.83
2019-03-08T07:30:10.863Z,6.83
2019-03-08T07:31:10.936Z,6.82
2019-03-08T07:32:10.839Z,6.81
2019-03-08T07:33:10.948Z,6.76
2019-03-08T07:34:11.136Z,6.79
2019-03-08T07:35:10.858Z,6.75
2019-03-08T07:36:10.793Z,6.63
2019-03-08T07:37:10.871Z,6.61
2019-03-08T07:38:10.773Z,6.63
2019-03-08T07:39:10.937Z,6.60
2019-03-08T07:40:10.751Z,6.63
2019-03-08T07:41:10.797Z,6.54
2019-03-08T07:42:10.730Z,6.55
2019-03-08T07:43:10.815Z,6.57
2019-03-08T07:44:10.738Z,6.45
2019-03-08T07:45:10.836Z,6.45
2019-03-08T07:46:10.680Z,6.39
2019-03-08T07:47:10.736Z,6.51
2019-03-08T07:48:10.660Z,6.40
2019-03-08T07:49:10.786Z,6.48
2019-03-08T07:50:10.655Z,6.43
2019-03-08T07:51:10.658Z,6.39
2019-03-08T07:52:10.621Z,6.45
2019-03-08T07:53:10.670Z,6.42
2019-03-08T07:54:10.671Z,6.51
2019-03-08T07:55:10.682Z,6.51
2019-03-08T07:56:10.577Z,6.45
2019-03-08T07:57:10.610Z,6.46
2019-03-08T07:58:10.558Z,6.54
2019-03-08T07:59:10.639Z,6.58
2019-03-08T08:00:10.531Z,6.79
2019-03-08T08:01:10.622Z,6.81
2019-03-08T08:02:10.520Z,6.89
2019-03-08T08:03:10.535Z,6.96
2019-03-08T08:04:10.488Z,6.94
2019-03-08T08:05:10.576Z,6.93
2019-03-08T08:06:10.469Z,6.91
2019-03-08T08:07:10.565Z,6.83
2019-03-08T08:08:10.457Z,6.82
2019-03-08T08:09:10.477Z,6.82
2019-03-08T08:10:10.440Z,6.81
2019-03-08T08:11:10.490Z,6.79
2019-03-08T08:12:10.413Z,6.81
2019-03-08T08:13:10.503Z,6.79
2019-03-08T08:14:10.383Z,6.83
2019-03-08T08:15:10.444Z,6.96
2019-03-08T08:16:10.383Z,7.07
2019-03-08T08:17:10.428Z,7.15
2019-03-08T08:18:10.331Z,7.29
2019-03-08T08:19:10.448Z,7.24
2019-03-08T08:20:16.314Z,7.21
2019-03-08T08:21:11.406Z,7.21
2019-03-08T08:22:12.187Z,7.18
2019-03-08T08:23:10.371Z,7.21
2019-03-08T08:24:10.274Z,7.24
2019-03-08T08:25:10.281Z,7.14
2019-03-08T08:26:10.268Z,7.19
2019-03-08T08:27:10.299Z,7.24
2019-03-08T08:28:10.218Z,7.23
2019-03-08T08:29:10.304Z,7.19
2019-03-08T08:30:10.206Z,7.21
2019-03-08T08:31:10.251Z,7.29
2019-03-08T08:32:10.170Z,7.39
2019-03-08T08:33:10.234Z,7.50
2019-03-08T08:34:10.158Z,7.48
2019-03-08T08:35:10.247Z,7.48
2019-03-08T08:36:10.159Z,7.47
2019-03-08T08:37:10.291Z,7.48
2019-03-08T08:38:10.113Z,7.54
2019-03-08T08:39:10.168Z,7.60
2019-03-08T08:40:10.101Z,7.54
2019-03-08T08:41:10.189Z,7.55
2019-03-08T08:42:10.090Z,7.54
2019-03-08T08:43:10.094Z,7.48
2019-03-08T08:44:10.046Z,7.39
2019-03-08T08:45:10.110Z,7.26
2019-03-08T08:46:10.042Z,7.11
2019-03-08T08:47:10.153Z,7.14
2019-03-08T08:48:10.002Z,6.94
2019-03-08T08:49:10.033Z,6.87
2019-03-08T08:50:09.974Z,6.79
2019-03-08T08:51:10.082Z,6.75
2019-03-08T08:52:09.996Z,6.69
2019-03-08T08:53:10.065Z,6.68
2019-03-08T08:54:09.933Z,6.61
2019-03-08T08:55:09.974Z,6.71
2019-03-08T08:56:09.991Z,6.87
2019-03-08T08:57:10.003Z,6.97
2019-03-08T08:58:09.885Z,7.12
2019-03-08T08:59:10.007Z,7.19
2019-03-08T09:00:09.872Z,7.36
2019-03-08T09:01:09.913Z,7.47
2019-03-08T09:02:09.871Z,7.74
2019-03-08T09:03:09.936Z,7.89
2019-03-08T09:04:09.833Z,7.92
2019-03-08T09:05:09.844Z,7.86
2019-03-08T09:06:09.807Z,7.86
2019-03-08T09:07:09.896Z,7.85
2019-03-08T09:08:09.784Z,7.74
2019-03-08T09:09:09.869Z,7.86
2019-03-08T09:10:09.757Z,7.84
2019-03-08T09:11:09.779Z,7.89
2019-03-08T09:12:09.735Z,7.88
2019-03-08T09:13:09.838Z,7.92
2019-03-08T09:14:09.733Z,7.96
2019-03-08T09:15:09.809Z,7.92
2019-03-08T09:16:09.709Z,7.94
2019-03-08T09:17:09.716Z,7.91
2019-03-08T09:18:09.703Z,7.92
2019-03-08T09:19:09.733Z,7.92
2019-03-08T09:20:09.657Z,7.95
2019-03-08T09:21:09.749Z,7.95
2019-03-08T09:22:09.628Z,7.96
2019-03-08T09:23:09.693Z,7.86
2019-03-08T09:24:09.604Z,7.94
2019-03-08T09:25:09.675Z,7.82
2019-03-08T09:26:09.583Z,7.85
2019-03-08T09:27:09.686Z,7.82
2019-03-08T09:28:09.592Z,7.85
2019-03-08T09:29:09.602Z,7.76
2019-03-08T09:30:09.546Z,7.73
2019-03-08T09:31:09.616Z,7.79
2019-03-08T09:32:09.520Z,7.67
2019-03-08T09:33:09.667Z,7.74
2019-03-08T09:34:09.521Z,7.57
2019-03-08T09:35:09.538Z,7.54
2019-03-08T09:36:09.472Z,7.47
2019-03-08T09:38:10.615Z,7.08
2019-03-08T09:39:09.601Z,6.83
2019-03-08T09:40:09.453Z,6.58
2019-03-08T09:41:09.484Z,6.32
2019-03-08T09:42:09.426Z,6.13
2019-03-08T09:43:09.493Z,6.08
2019-03-08T09:44:09.411Z,6.05
2019-03-08T09:45:09.410Z,6.05
2019-03-08T09:46:09.380Z,5.96
2019-03-08T09:47:09.421Z,6.01
2019-03-08T09:48:09.345Z,5.99
2019-03-08T09:49:09.472Z,5.96
2019-03-08T09:50:09.327Z,5.99
2019-03-08T09:51:09.344Z,5.96
2019-03-08T09:52:09.303Z,5.99
2019-03-08T09:53:09.389Z,5.98
2019-03-08T09:54:09.304Z,5.85
2019-03-08T09:55:09.405Z,5.77
2019-03-08T09:56:09.263Z,5.87
2019-03-08T09:57:09.283Z,5.96
2019-03-08T09:58:09.237Z,6.13
2019-03-08T09:59:09.352Z,6.45
2019-03-08T10:00:09.253Z,6.58
2019-03-08T10:01:16.340Z,6.71
2019-03-08T10:02:10.190Z,6.79
2019-03-08T10:03:09.267Z,7.00
2019-03-08T10:04:09.196Z,7.14
2019-03-08T10:05:09.283Z,7.18
2019-03-08T10:06:09.145Z,7.34
2019-03-08T10:07:09.259Z,7.37
2019-03-08T10:08:09.137Z,7.50
2019-03-08T10:09:09.208Z,7.55
2019-03-08T10:10:09.126Z,7.70
2019-03-08T10:11:09.177Z,7.79
2019-03-08T10:12:09.079Z,7.81
2019-03-08T10:13:09.185Z,7.95
2019-03-08T10:14:09.085Z,8.04
2019-03-08T10:15:09.132Z,8.12
2019-03-08T10:16:09.046Z,8.20
2019-03-08T10:17:09.112Z,8.24
2019-03-08T10:18:09.024Z,8.36
2019-03-08T10:19:09.147Z,8.43
2019-03-08T10:20:09.029Z,8.39
2019-03-08T10:21:09.041Z,8.50
2019-03-08T10:22:08.989Z,8.70
2019-03-08T10:23:09.056Z,8.75
2019-03-08T10:24:08.962Z,8.76
2019-03-08T10:25:08.979Z,8.78
2019-03-08T10:26:08.972Z,8.97
2019-03-08T10:27:08.988Z,8.97
2019-03-08T10:28:08.909Z,9.03
2019-03-08T10:29:09.000Z,9.06
2019-03-08T10:30:08.892Z,8.94
2019-03-08T10:31:08.939Z,8.98
2019-03-08T10:32:08.873Z,9.10
2019-03-08T10:33:10.221Z,9.19
2019-03-08T10:34:08.844Z,9.22
2019-03-08T10:35:08.959Z,9.35
2019-03-08T10:36:08.845Z,9.67
2019-03-08T10:37:08.847Z,9.63
2019-03-08T10:38:08.802Z,9.71
2019-03-08T10:39:08.861Z,9.80
2019-03-08T10:40:08.772Z,10.02
2019-03-08T10:41:08.921Z,10.09
2019-03-08T10:42:08.749Z,10.13
2019-03-08T10:43:08.783Z,10.24
2019-03-08T10:44:11.800Z,10.34
2019-03-08T10:45:08.802Z,10.36
2019-03-08T10:46:15.489Z,10.39
2019-03-08T10:47:09.733Z,10.43
2019-03-08T10:48:08.681Z,10.58
2019-03-08T10:49:08.723Z,10.83
2019-03-08T10:50:08.666Z,10.86
2019-03-08T10:51:08.768Z,10.93
2019-03-08T10:52:17.091Z,10.84
2019-03-08T10:53:09.639Z,10.60
2019-03-08T10:54:08.655Z,10.84
2019-03-08T10:55:08.606Z,10.83
2019-03-08T10:56:08.677Z,10.70
2019-03-08T10:57:09.356Z,10.75
2019-03-08T10:58:08.689Z,10.69
2019-03-08T10:59:08.567Z,10.55
2019-03-08T11:00:08.603Z,10.73
2019-03-08T11:01:08.540Z,10.72
2019-03-08T11:02:08.726Z,10.51
2019-03-08T11:03:08.515Z,10.51
2019-03-08T11:04:08.631Z,10.80
2019-03-08T11:05:08.496Z,10.60
2019-03-08T11:06:08.789Z,10.32
2019-03-08T11:07:08.481Z,10.06
2019-03-08T11:08:09.068Z,9.89
2019-03-08T11:09:08.455Z,9.81
2019-03-08T11:10:08.575Z,9.71
2019-03-08T11:11:08.424Z,9.52
2019-03-08T11:12:08.509Z,9.38
2019-03-08T11:13:08.410Z,9.27
2019-03-08T11:14:08.488Z,9.23
2019-03-08T11:15:08.389Z,9.27
2019-03-08T11:16:08.398Z,9.26
2019-03-08T11:17:08.359Z,9.19
2019-03-08T11:18:08.447Z,9.30
2019-03-08T11:19:09.101Z,9.38
2019-03-08T11:20:08.522Z,9.44
2019-03-08T11:21:08.326Z,9.37
2019-03-08T11:22:08.342Z,9.23
2019-03-08T11:23:08.335Z,9.24
2019-03-08T11:24:08.353Z,9.23
2019-03-08T11:25:08.825Z,9.16
2019-03-08T11:26:08.364Z,9.08
2019-03-08T11:27:08.252Z,9.01
2019-03-08T11:28:08.315Z,9.06
2019-03-08T11:29:08.228Z,9.16
2019-03-08T11:30:08.291Z,9.01
2019-03-08T11:31:08.206Z,9.00
2019-03-08T11:32:08.308Z,9.08
2019-03-08T11:33:08.220Z,9.08
2019-03-08T11:34:08.371Z,9.03
2019-03-08T11:35:08.162Z,8.97
2019-03-08T11:36:08.244Z,8.98
2019-03-08T11:37:08.137Z,8.98
2019-03-08T11:38:08.273Z,8.97
2019-03-08T11:39:08.119Z,8.83
2019-03-08T11:40:08.155Z,8.86
2019-03-08T11:41:08.092Z,8.94
2019-03-08T11:42:08.180Z,9.00
2019-03-08T11:43:08.072Z,9.04
2019-03-08T11:44:08.215Z,9.04
2019-03-08T11:45:08.058Z,9.13
2019-03-08T11:46:08.095Z,9.13
2019-03-08T11:47:08.064Z,9.19
2019-03-08T11:48:08.108Z,9.06
2019-03-08T11:49:08.032Z,9.12
2019-03-08T11:50:08.057Z,9.06
2019-03-08T11:51:07.980Z,8.96
2019-03-08T11:52:08.039Z,8.98
2019-03-08T11:53:07.962Z,8.85
2019-03-08T11:54:08.077Z,8.79
2019-03-08T11:55:07.938Z,8.83
2019-03-08T11:56:07.956Z,8.80
2019-03-08T11:57:07.919Z,8.71
2019-03-08T11:58:07.981Z,8.89
2019-03-08T11:59:07.907Z,8.85
2019-03-08T12:00:08.026Z,8.79
2019-03-08T12:01:07.926Z,8.73
2019-03-08T12:02:07.898Z,8.78
2019-03-08T12:03:07.852Z,8.91
2019-03-08T12:04:07.912Z,9.10
2019-03-08T12:05:07.919Z,9.31
2019-03-08T12:06:07.928Z,9.53
2019-03-08T12:07:07.824Z,9.74
2019-03-08T12:08:07.835Z,9.78
2019-03-08T12:09:07.789Z,9.91
2019-03-08T12:10:07.877Z,10.06
2019-03-08T12:11:07.777Z,10.10
2019-03-08T12:12:07.863Z,10.16
2019-03-08T12:13:07.748Z,10.28
2019-03-08T12:14:07.779Z,10.25
2019-03-08T12:15:07.753Z,10.36
2019-03-08T12:16:07.792Z,10.44
2019-03-08T12:17:07.693Z,10.57
2019-03-08T12:18:07.811Z,10.60
2019-03-08T12:19:07.683Z,10.57
2019-03-08T12:20:07.758Z,10.72
2019-03-08T12:21:07.678Z,10.68
2019-03-08T12:22:07.731Z,10.76
2019-03-08T12:23:07.628Z,10.83
2019-03-08T12:24:07.746Z,10.80
2019-03-08T12:25:07.646Z,10.78
2019-03-08T12:26:07.653Z,10.80
2019-03-08T12:27:07.600Z,10.80
2019-03-08T12:28:07.673Z,10.90
2019-03-08T12:29:07.572Z,10.83
2019-03-08T12:30:07.584Z,10.88
2019-03-08T12:31:07.590Z,10.99
2019-03-08T12:32:07.599Z,11.12
2019-03-08T12:33:07.523Z,11.20
2019-03-08T12:34:07.617Z,11.28
2019-03-08T12:35:07.530Z,11.26
2019-03-08T12:36:07.563Z,11.19
2019-03-08T12:37:07.482Z,11.09
2019-03-08T12:38:07.532Z,11.05
2019-03-08T12:39:07.464Z,11.12
2019-03-08T12:40:07.560Z,11.26
2019-03-08T12:41:07.459Z,11.16
2019-03-08T12:42:07.466Z,11.17
2019-03-08T12:43:08.271Z,11.21
2019-03-08T12:44:07.481Z,11.36
2019-03-08T12:45:07.384Z,11.41
2019-03-08T12:46:07.495Z,11.48
2019-03-08T12:47:07.403Z,11.59
2019-03-08T12:48:07.402Z,11.64
2019-03-08T12:49:07.357Z,11.45
2019-03-08T12:50:07.414Z,11.53
2019-03-08T12:51:07.348Z,11.28
2019-03-08T12:52:07.467Z,11.16
2019-03-08T12:53:07.328Z,11.06
2019-03-08T12:54:07.346Z,11.09
2019-03-08T12:55:07.277Z,11.16
2019-03-08T12:56:07.367Z,11.24
2019-03-08T12:57:07.297Z,11.12
2019-03-08T12:58:07.366Z,11.13
2019-03-08T12:59:07.239Z,10.90
2019-03-08T13:00:07.276Z,10.70
2019-03-08T13:01:07.210Z,10.70
2019-03-08T13:02:07.293Z,10.68
2019-03-08T13:03:07.211Z,10.52
2019-03-08T13:04:07.306Z,10.36
2019-03-08T13:05:07.166Z,10.32
2019-03-08T13:07:08.316Z,10.25
2019-03-08T13:08:07.237Z,10.22
2019-03-08T13:09:07.150Z,10.14
2019-03-08T13:10:07.245Z,10.02
2019-03-08T13:11:07.098Z,10.14
2019-03-08T13:12:07.183Z,10.16
2019-03-08T13:13:07.113Z,10.07
2019-03-08T13:14:07.170Z,10.11
2019-03-08T13:15:07.078Z,10.11
2019-03-08T13:16:07.086Z,10.06
2019-03-08T13:17:07.084Z,10.07
2019-03-08T13:18:07.096Z,10.06
2019-03-08T13:19:07.015Z,10.17
2019-03-08T13:20:07.140Z,10.11
2019-03-08T13:21:07.734Z,10.07
2019-03-08T13:22:07.154Z,10.20
2019-03-08T13:23:06.993Z,10.29
2019-03-08T13:24:07.135Z,10.24